sensor_id;sensor_type;location;lat;lon;timestamp;P1;durP1;ratioP1;P2;durP2;ratioP2
32333;SDS011;18810;53.040;8.850;2023-02-01T00:02:16;22.67;;;4.88;;
32333;SDS011;18810;53.040;8.850;2023-02-01T00:04:42;41.58;;;5.85;;
32333;SDS011;18810;53.040;8.850;2023-02-01T00:07:08;28.10;;;6.10;;
32333;SDS011;18810;53.040;8.850;2023-02-01T00:09:34;20.48;;;5.85;;
32333;SDS011;18810;53.040;8.850;2023-02-01T00:12:00;28.92;;;5.80;;
32333;SDS011;18810;53.040;8.850;2023-02-01T00:14:28;28.98;;;4.95;;
32333;SDS011;18810;53.040;8.850;2023-02-01T00:16:53;28.73;;;6.05;;
32333;SDS011;18810;53.040;8.850;2023-02-01T00:19:19;28.38;;;5.38;;
32333;SDS011;18810;53.040;8.850;2023-02-01T00:21:45;23.55;;;4.90;;
32333;SDS011;18810;53.040;8.850;2023-02-01T00:24:11;35.38;;;5.97;;
32333;SDS011;18810;53.040;8.850;2023-02-01T00:26:38;32.40;;;5.60;;
32333;SDS011;18810;53.040;8.850;2023-02-01T00:29:07;29.33;;;4.80;;
32333;SDS011;18810;53.040;8.850;2023-02-01T00:31:36;32.03;;;5.65;;
32333;SDS011;18810;53.040;8.850;2023-02-01T00:34:02;30.40;;;5.05;;
32333;SDS011;18810;53.040;8.850;2023-02-01T00:36:28;31.40;;;4.82;;
32333;SDS011;18810;53.040;8.850;2023-02-01T00:38:55;23.05;;;5.22;;
32333;SDS011;18810;53.040;8.850;2023-02-01T00:41:21;32.60;;;5.70;;
32333;SDS011;18810;53.040;8.850;2023-02-01T00:43:47;31.40;;;5.80;;
32333;SDS011;18810;53.040;8.850;2023-02-01T00:46:14;30.17;;;6.05;;
32333;SDS011;18810;53.040;8.850;2023-02-01T00:48:41;35.35;;;6.05;;
32333;SDS011;18810;53.040;8.850;2023-02-01T00:51:08;24.30;;;5.22;;
32333;SDS011;18810;53.040;8.850;2023-02-01T00:53:36;34.53;;;5.43;;
32333;SDS011;18810;53.040;8.850;2023-02-01T00:56:02;29.63;;;5.80;;
32333;SDS011;18810;53.040;8.850;2023-02-01T00:58:30;25.65;;;5.60;;
32333;SDS011;18810;53.040;8.850;2023-02-01T01:01:00;25.15;;;4.57;;
32333;SDS011;18810;53.040;8.850;2023-02-01T01:03:31;27.17;;;4.90;;
32333;SDS011;18810;53.040;8.850;2023-02-01T01:05:59;27.65;;;6.03;;
32333;SDS011;18810;53.040;8.850;2023-02-01T01:08:26;26.92;;;5.55;;
32333;SDS011;18810;53.040;8.850;2023-02-01T01:10:52;25.20;;;5.32;;
32333;SDS011;18810;53.040;8.850;2023-02-01T01:13:18;25.23;;;5.55;;
32333;SDS011;18810;53.040;8.850;2023-02-01T01:15:43;26.25;;;6.00;;
32333;SDS011;18810;53.040;8.850;2023-02-01T01:18:09;30.75;;;5.30;;
32333;SDS011;18810;53.040;8.850;2023-02-01T01:20:36;24.90;;;5.05;;
32333;SDS011;18810;53.040;8.850;2023-02-01T01:23:03;23.98;;;5.47;;
32333;SDS011;18810;53.040;8.850;2023-02-01T01:25:29;34.20;;;5.25;;
32333;SDS011;18810;53.040;8.850;2023-02-01T01:27:55;20.00;;;5.03;;
32333;SDS011;18810;53.040;8.850;2023-02-01T01:30:21;31.20;;;5.35;;
32333;SDS011;18810;53.040;8.850;2023-02-01T01:32:46;26.95;;;5.57;;
32333;SDS011;18810;53.040;8.850;2023-02-01T01:35:12;28.63;;;6.15;;
32333;SDS011;18810;53.040;8.850;2023-02-01T01:37:38;32.03;;;5.25;;
32333;SDS011;18810;53.040;8.850;2023-02-01T01:40:04;23.33;;;5.05;;
32333;SDS011;18810;53.040;8.850;2023-02-01T01:42:30;29.33;;;5.28;;
32333;SDS011;18810;53.040;8.850;2023-02-01T01:45:51;24.50;;;5.60;;
32333;SDS011;18810;53.040;8.850;2023-02-01T01:47:59;27.63;;;5.47;;
32333;SDS011;18810;53.040;8.850;2023-02-01T01:50:30;25.10;;;4.95;;
32333;SDS011;18810;53.040;8.850;2023-02-01T01:53:01;26.45;;;5.68;;
32333;SDS011;18810;53.040;8.850;2023-02-01T01:55:30;25.55;;;4.88;;
32333;SDS011;18810;53.040;8.850;2023-02-01T01:58:00;23.75;;;4.53;;
32333;SDS011;18810;53.040;8.850;2023-02-01T02:03:00;30.55;;;5.50;;
32333;SDS011;18810;53.040;8.850;2023-02-01T02:05:32;20.60;;;5.40;;
32333;SDS011;18810;53.040;8.850;2023-02-01T02:07:59;30.58;;;5.28;;
32333;SDS011;18810;53.040;8.850;2023-02-01T02:10:28;19.67;;;5.05;;
32333;SDS011;18810;53.040;8.850;2023-02-01T02:13:13;31.10;;;6.57;;
32333;SDS011;18810;53.040;8.850;2023-02-01T02:15:42;24.23;;;4.80;;
32333;SDS011;18810;53.040;8.850;2023-02-01T02:18:16;28.80;;;4.57;;
32333;SDS011;18810;53.040;8.850;2023-02-01T02:20:59;28.50;;;4.97;;
32333;SDS011;18810;53.040;8.850;2023-02-01T02:23:57;26.10;;;5.30;;
32333;SDS011;18810;53.040;8.850;2023-02-01T02:34:32;20.48;;;4.43;;
32333;SDS011;18810;53.040;8.850;2023-02-01T02:45:25;22.55;;;5.65;;
32333;SDS011;18810;53.040;8.850;2023-02-01T02:51:05;30.70;;;6.65;;
32333;SDS011;18810;53.040;8.850;2023-02-01T02:54:21;26.13;;;4.82;;
32333;SDS011;18810;53.040;8.850;2023-02-01T02:57:08;22.48;;;4.93;;
32333;SDS011;18810;53.040;8.850;2023-02-01T02:59:55;21.83;;;5.13;;
32333;SDS011;18810;53.040;8.850;2023-02-01T03:02:42;29.23;;;5.95;;
32333;SDS011;18810;53.040;8.850;2023-02-01T03:05:35;20.98;;;5.13;;
32333;SDS011;18810;53.040;8.850;2023-02-01T03:13:22;28.90;;;4.93;;
32333;SDS011;18810;53.040;8.850;2023-02-01T03:16:04;30.63;;;6.00;;
32333;SDS011;18810;53.040;8.850;2023-02-01T03:18:42;25.80;;;6.22;;
32333;SDS011;18810;53.040;8.850;2023-02-01T03:21:16;25.23;;;5.10;;
32333;SDS011;18810;53.040;8.850;2023-02-01T03:23:46;26.00;;;5.55;;
32333;SDS011;18810;53.040;8.850;2023-02-01T03:26:14;26.20;;;6.22;;
32333;SDS011;18810;53.040;8.850;2023-02-01T03:28:45;30.92;;;7.18;;
32333;SDS011;18810;53.040;8.850;2023-02-01T03:31:17;24.30;;;5.38;;
32333;SDS011;18810;53.040;8.850;2023-02-01T03:33:43;24.83;;;5.22;;
32333;SDS011;18810;53.040;8.850;2023-02-01T03:52:38;28.23;;;5.82;;
32333;SDS011;18810;53.040;8.850;2023-02-01T03:55:13;30.25;;;5.93;;
32333;SDS011;18810;53.040;8.850;2023-02-01T03:57:46;19.67;;;4.80;;
32333;SDS011;18810;53.040;8.850;2023-02-01T04:00:19;26.27;;;5.05;;
32333;SDS011;18810;53.040;8.850;2023-02-01T04:02:49;14.60;;;4.63;;
32333;SDS011;18810;53.040;8.850;2023-02-01T04:05:16;17.23;;;4.90;;
32333;SDS011;18810;53.040;8.850;2023-02-01T04:07:42;21.95;;;5.10;;
32333;SDS011;18810;53.040;8.850;2023-02-01T04:10:08;20.52;;;4.05;;
32333;SDS011;18810;53.040;8.850;2023-02-01T04:12:34;18.90;;;4.50;;
32333;SDS011;18810;53.040;8.850;2023-02-01T04:14:59;21.05;;;4.90;;
32333;SDS011;18810;53.040;8.850;2023-02-01T04:17:25;18.52;;;4.75;;
32333;SDS011;18810;53.040;8.850;2023-02-01T04:19:51;15.05;;;4.97;;
32333;SDS011;18810;53.040;8.850;2023-02-01T04:22:17;19.52;;;5.05;;
32333;SDS011;18810;53.040;8.850;2023-02-01T04:24:42;23.55;;;6.57;;
32333;SDS011;18810;53.040;8.850;2023-02-01T04:27:08;19.23;;;5.55;;
32333;SDS011;18810;53.040;8.850;2023-02-01T04:29:34;27.35;;;6.00;;
32333;SDS011;18810;53.040;8.850;2023-02-01T04:31:59;27.48;;;6.47;;
32333;SDS011;18810;53.040;8.850;2023-02-01T04:34:25;21.02;;;5.63;;
32333;SDS011;18810;53.040;8.850;2023-02-01T04:36:51;29.30;;;6.18;;
32333;SDS011;18810;53.040;8.850;2023-02-01T04:39:17;31.65;;;6.47;;
32333;SDS011;18810;53.040;8.850;2023-02-01T04:41:42;31.00;;;7.72;;
32333;SDS011;18810;53.040;8.850;2023-02-01T04:44:17;24.70;;;7.00;;
32333;SDS011;18810;53.040;8.850;2023-02-01T04:46:44;25.42;;;6.70;;
32333;SDS011;18810;53.040;8.850;2023-02-01T04:49:11;39.90;;;7.63;;
32333;SDS011;18810;53.040;8.850;2023-02-01T04:51:38;32.90;;;7.05;;
32333;SDS011;18810;53.040;8.850;2023-02-01T04:54:04;28.05;;;7.32;;
32333;SDS011;18810;53.040;8.850;2023-02-01T04:56:30;22.40;;;7.28;;
32333;SDS011;18810;53.040;8.850;2023-02-01T04:58:55;33.20;;;7.72;;
32333;SDS011;18810;53.040;8.850;2023-02-01T05:01:22;36.28;;;8.02;;
32333;SDS011;18810;53.040;8.850;2023-02-01T05:03:49;37.53;;;8.82;;
32333;SDS011;18810;53.040;8.850;2023-02-01T05:06:15;24.05;;;7.20;;
32333;SDS011;18810;53.040;8.850;2023-02-01T05:08:40;29.30;;;7.88;;
32333;SDS011;18810;53.040;8.850;2023-02-01T05:11:06;30.02;;;7.72;;
32333;SDS011;18810;53.040;8.850;2023-02-01T05:13:52;35.35;;;7.85;;
32333;SDS011;18810;53.040;8.850;2023-02-01T05:16:17;36.55;;;6.93;;
32333;SDS011;18810;53.040;8.850;2023-02-01T05:18:43;35.90;;;8.60;;
32333;SDS011;18810;53.040;8.850;2023-02-01T05:21:08;32.58;;;8.60;;
32333;SDS011;18810;53.040;8.850;2023-02-01T05:23:34;30.65;;;7.32;;
32333;SDS011;18810;53.040;8.850;2023-02-01T05:26:23;22.88;;;6.45;;
32333;SDS011;18810;53.040;8.850;2023-02-01T05:28:49;26.90;;;7.63;;
32333;SDS011;18810;53.040;8.850;2023-02-01T05:31:16;30.23;;;6.68;;
32333;SDS011;18810;53.040;8.850;2023-02-01T05:33:41;22.98;;;5.63;;
32333;SDS011;18810;53.040;8.850;2023-02-01T05:36:07;24.23;;;5.72;;
32333;SDS011;18810;53.040;8.850;2023-02-01T05:38:33;18.08;;;5.22;;
32333;SDS011;18810;53.040;8.850;2023-02-01T05:40:58;19.17;;;4.90;;
32333;SDS011;18810;53.040;8.850;2023-02-01T05:43:24;18.13;;;5.13;;
32333;SDS011;18810;53.040;8.850;2023-02-01T05:45:53;21.88;;;5.53;;
32333;SDS011;18810;53.040;8.850;2023-02-01T05:48:18;18.45;;;4.78;;
32333;SDS011;18810;53.040;8.850;2023-02-01T05:50:44;18.88;;;4.60;;
32333;SDS011;18810;53.040;8.850;2023-02-01T05:53:10;19.23;;;4.90;;
32333;SDS011;18810;53.040;8.850;2023-02-01T05:55:37;23.38;;;4.70;;
32333;SDS011;18810;53.040;8.850;2023-02-01T05:58:03;16.05;;;4.25;;
32333;SDS011;18810;53.040;8.850;2023-02-01T06:00:29;18.38;;;5.00;;
32333;SDS011;18810;53.040;8.850;2023-02-01T06:02:56;15.55;;;4.22;;
32333;SDS011;18810;53.040;8.850;2023-02-01T06:05:21;16.67;;;4.20;;
32333;SDS011;18810;53.040;8.850;2023-02-01T06:07:47;19.05;;;5.57;;
32333;SDS011;18810;53.040;8.850;2023-02-01T06:10:14;21.23;;;5.07;;
32333;SDS011;18810;53.040;8.850;2023-02-01T06:12:41;20.73;;;5.30;;
32333;SDS011;18810;53.040;8.850;2023-02-01T06:15:07;18.27;;;5.65;;
32333;SDS011;18810;53.040;8.850;2023-02-01T06:17:33;21.92;;;6.30;;
32333;SDS011;18810;53.040;8.850;2023-02-01T06:19:59;23.80;;;6.38;;
32333;SDS011;18810;53.040;8.850;2023-02-01T06:22:25;16.17;;;5.75;;
32333;SDS011;18810;53.040;8.850;2023-02-01T06:24:51;18.77;;;6.20;;
32333;SDS011;18810;53.040;8.850;2023-02-01T06:27:17;24.73;;;5.78;;
32333;SDS011;18810;53.040;8.850;2023-02-01T06:29:43;27.35;;;6.78;;
32333;SDS011;18810;53.040;8.850;2023-02-01T06:32:08;27.13;;;5.50;;
32333;SDS011;18810;53.040;8.850;2023-02-01T06:34:35;19.25;;;4.65;;
32333;SDS011;18810;53.040;8.850;2023-02-01T06:37:02;24.30;;;5.30;;
32333;SDS011;18810;53.040;8.850;2023-02-01T06:39:28;27.88;;;5.75;;
32333;SDS011;18810;53.040;8.850;2023-02-01T06:41:54;26.67;;;6.53;;
32333;SDS011;18810;53.040;8.850;2023-02-01T06:44:19;22.50;;;6.43;;
32333;SDS011;18810;53.040;8.850;2023-02-01T06:46:45;27.63;;;5.78;;
32333;SDS011;18810;53.040;8.850;2023-02-01T06:49:11;31.45;;;6.82;;
32333;SDS011;18810;53.040;8.850;2023-02-01T06:51:37;23.85;;;6.30;;
32333;SDS011;18810;53.040;8.850;2023-02-01T06:54:03;25.30;;;6.47;;
32333;SDS011;18810;53.040;8.850;2023-02-01T06:56:29;24.40;;;6.40;;
32333;SDS011;18810;53.040;8.850;2023-02-01T06:58:56;17.30;;;5.55;;
32333;SDS011;18810;53.040;8.850;2023-02-01T07:01:22;27.52;;;6.57;;
32333;SDS011;18810;53.040;8.850;2023-02-01T07:03:48;23.83;;;5.30;;
32333;SDS011;18810;53.040;8.850;2023-02-01T07:06:16;25.02;;;6.20;;
32333;SDS011;18810;53.040;8.850;2023-02-01T07:08:42;22.08;;;4.78;;
32333;SDS011;18810;53.040;8.850;2023-02-01T07:11:09;26.02;;;5.45;;
32333;SDS011;18810;53.040;8.850;2023-02-01T07:13:36;26.65;;;5.68;;
32333;SDS011;18810;53.040;8.850;2023-02-01T07:16:03;28.85;;;5.95;;
32333;SDS011;18810;53.040;8.850;2023-02-01T07:18:31;21.90;;;6.57;;
32333;SDS011;18810;53.040;8.850;2023-02-01T07:20:57;23.33;;;5.30;;
32333;SDS011;18810;53.040;8.850;2023-02-01T07:23:23;29.08;;;6.25;;
32333;SDS011;18810;53.040;8.850;2023-02-01T07:25:57;22.83;;;5.40;;
32333;SDS011;18810;53.040;8.850;2023-02-01T07:28:24;25.15;;;5.18;;
32333;SDS011;18810;53.040;8.850;2023-02-01T07:30:50;23.02;;;6.90;;
32333;SDS011;18810;53.040;8.850;2023-02-01T07:33:17;22.83;;;6.43;;
32333;SDS011;18810;53.040;8.850;2023-02-01T07:35:44;28.63;;;6.65;;
32333;SDS011;18810;53.040;8.850;2023-02-01T07:38:11;32.08;;;7.88;;
32333;SDS011;18810;53.040;8.850;2023-02-01T07:40:36;23.90;;;6.82;;
32333;SDS011;18810;53.040;8.850;2023-02-01T07:43:02;23.50;;;6.43;;
32333;SDS011;18810;53.040;8.850;2023-02-01T07:45:27;27.30;;;6.25;;
32333;SDS011;18810;53.040;8.850;2023-02-01T07:47:53;29.85;;;6.45;;
32333;SDS011;18810;53.040;8.850;2023-02-01T07:50:19;38.03;;;6.28;;
32333;SDS011;18810;53.040;8.850;2023-02-01T07:52:44;33.45;;;6.53;;
32333;SDS011;18810;53.040;8.850;2023-02-01T07:55:10;33.90;;;6.22;;
32333;SDS011;18810;53.040;8.850;2023-02-01T07:57:36;34.00;;;6.13;;
32333;SDS011;18810;53.040;8.850;2023-02-01T08:00:02;25.05;;;5.18;;
32333;SDS011;18810;53.040;8.850;2023-02-01T08:02:47;23.58;;;4.85;;
32333;SDS011;18810;53.040;8.850;2023-02-01T08:05:12;28.83;;;5.97;;
32333;SDS011;18810;53.040;8.850;2023-02-01T08:07:38;21.85;;;5.32;;
32333;SDS011;18810;53.040;8.850;2023-02-01T08:10:04;27.00;;;5.13;;
32333;SDS011;18810;53.040;8.850;2023-02-01T08:12:35;25.08;;;5.38;;
32333;SDS011;18810;53.040;8.850;2023-02-01T08:15:01;26.65;;;6.20;;
32333;SDS011;18810;53.040;8.850;2023-02-01T08:17:28;21.80;;;5.20;;
32333;SDS011;18810;53.040;8.850;2023-02-01T08:19:54;24.38;;;5.72;;
32333;SDS011;18810;53.040;8.850;2023-02-01T08:22:20;24.73;;;4.68;;
32333;SDS011;18810;53.040;8.850;2023-02-01T08:24:48;25.83;;;5.88;;
32333;SDS011;18810;53.040;8.850;2023-02-01T08:27:14;23.55;;;5.03;;
32333;SDS011;18810;53.040;8.850;2023-02-01T08:29:40;20.40;;;5.53;;
32333;SDS011;18810;53.040;8.850;2023-02-01T08:32:05;26.25;;;5.68;;
32333;SDS011;18810;53.040;8.850;2023-02-01T08:34:31;30.98;;;4.95;;
32333;SDS011;18810;53.040;8.850;2023-02-01T08:36:57;20.33;;;5.07;;
32333;SDS011;18810;53.040;8.850;2023-02-01T08:39:23;19.65;;;5.07;;
32333;SDS011;18810;53.040;8.850;2023-02-01T08:41:49;21.13;;;4.57;;
32333;SDS011;18810;53.040;8.850;2023-02-01T08:44:34;26.98;;;4.85;;
32333;SDS011;18810;53.040;8.850;2023-02-01T08:47:00;22.08;;;4.30;;
32333;SDS011;18810;53.040;8.850;2023-02-01T08:49:26;22.55;;;5.10;;
32333;SDS011;18810;53.040;8.850;2023-02-01T08:51:52;26.45;;;5.13;;
32333;SDS011;18810;53.040;8.850;2023-02-01T08:54:17;22.02;;;4.03;;
32333;SDS011;18810;53.040;8.850;2023-02-01T08:56:43;16.65;;;5.13;;
32333;SDS011;18810;53.040;8.850;2023-02-01T08:59:08;21.52;;;5.32;;
32333;SDS011;18810;53.040;8.850;2023-02-01T09:01:34;26.35;;;5.25;;
32333;SDS011;18810;53.040;8.850;2023-02-01T09:04:00;23.92;;;4.43;;
32333;SDS011;18810;53.040;8.850;2023-02-01T09:06:25;16.35;;;4.35;;
32333;SDS011;18810;53.040;8.850;2023-02-01T09:08:51;26.70;;;5.32;;
32333;SDS011;18810;53.040;8.850;2023-02-01T09:11:17;25.30;;;4.10;;
32333;SDS011;18810;53.040;8.850;2023-02-01T09:13:44;17.27;;;5.22;;
32333;SDS011;18810;53.040;8.850;2023-02-01T09:16:10;20.15;;;4.70;;
32333;SDS011;18810;53.040;8.850;2023-02-01T09:18:36;21.17;;;4.35;;
32333;SDS011;18810;53.040;8.850;2023-02-01T09:21:06;23.23;;;4.35;;
32333;SDS011;18810;53.040;8.850;2023-02-01T09:23:32;29.13;;;5.95;;
32333;SDS011;18810;53.040;8.850;2023-02-01T09:25:59;16.42;;;4.68;;
32333;SDS011;18810;53.040;8.850;2023-02-01T09:28:25;21.75;;;4.57;;
32333;SDS011;18810;53.040;8.850;2023-02-01T09:30:54;23.02;;;4.45;;
32333;SDS011;18810;53.040;8.850;2023-02-01T09:33:21;26.88;;;5.05;;
32333;SDS011;18810;53.040;8.850;2023-02-01T09:35:48;28.23;;;5.57;;
32333;SDS011;18810;53.040;8.850;2023-02-01T09:38:14;30.63;;;4.47;;
32333;SDS011;18810;53.040;8.850;2023-02-01T09:40:41;17.25;;;4.32;;
32333;SDS011;18810;53.040;8.850;2023-02-01T09:46:24;25.20;;;4.47;;
32333;SDS011;18810;53.040;8.850;2023-02-01T09:48:54;20.40;;;5.55;;
32333;SDS011;18810;53.040;8.850;2023-02-01T09:51:23;23.55;;;4.45;;
32333;SDS011;18810;53.040;8.850;2023-02-01T09:53:58;23.40;;;5.87;;
32333;SDS011;18810;53.040;8.850;2023-02-01T09:56:36;19.83;;;4.78;;
32333;SDS011;18810;53.040;8.850;2023-02-01T10:02:00;22.30;;;4.40;;
32333;SDS011;18810;53.040;8.850;2023-02-01T10:04:28;24.42;;;4.28;;
32333;SDS011;18810;53.040;8.850;2023-02-01T10:09:38;22.10;;;5.10;;
32333;SDS011;18810;53.040;8.850;2023-02-01T10:17:53;26.40;;;4.88;;
32333;SDS011;18810;53.040;8.850;2023-02-01T10:24:13;23.27;;;4.55;;
32333;SDS011;18810;53.040;8.850;2023-02-01T10:26:32;26.52;;;5.13;;
32333;SDS011;18810;53.040;8.850;2023-02-01T10:29:03;17.45;;;4.40;;
32333;SDS011;18810;53.040;8.850;2023-02-01T10:31:34;25.90;;;4.85;;
32333;SDS011;18810;53.040;8.850;2023-02-01T10:36:50;21.38;;;4.82;;
32333;SDS011;18810;53.040;8.850;2023-02-01T10:39:22;21.88;;;4.68;;
32333;SDS011;18810;53.040;8.850;2023-02-01T10:41:48;17.33;;;4.43;;
32333;SDS011;18810;53.040;8.850;2023-02-01T10:44:15;20.98;;;4.60;;
32333;SDS011;18810;53.040;8.850;2023-02-01T10:46:44;24.45;;;5.03;;
32333;SDS011;18810;53.040;8.850;2023-02-01T10:49:17;25.88;;;5.43;;
32333;SDS011;18810;53.040;8.850;2023-02-01T10:54:20;20.23;;;4.57;;
32333;SDS011;18810;53.040;8.850;2023-02-01T10:56:56;24.73;;;4.90;;
32333;SDS011;18810;53.040;8.850;2023-02-01T10:59:23;28.63;;;6.15;;
32333;SDS011;18810;53.040;8.850;2023-02-01T11:01:50;20.83;;;5.07;;
32333;SDS011;18810;53.040;8.850;2023-02-01T11:04:25;30.42;;;6.55;;
32333;SDS011;18810;53.040;8.850;2023-02-01T11:07:34;21.60;;;4.90;;
32333;SDS011;18810;53.040;8.850;2023-02-01T11:09:48;24.20;;;5.13;;
32333;SDS011;18810;53.040;8.850;2023-02-01T11:12:23;25.10;;;5.13;;
32333;SDS011;18810;53.040;8.850;2023-02-01T11:15:42;18.95;;;5.22;;
32333;SDS011;18810;53.040;8.850;2023-02-01T11:17:48;19.20;;;5.05;;
32333;SDS011;18810;53.040;8.850;2023-02-01T11:20:34;23.80;;;6.03;;
32333;SDS011;18810;53.040;8.850;2023-02-01T11:23:05;19.60;;;5.75;;
32333;SDS011;18810;53.040;8.850;2023-02-01T11:25:37;22.88;;;5.35;;
32333;SDS011;18810;53.040;8.850;2023-02-01T11:28:03;22.92;;;6.97;;
32333;SDS011;18810;53.040;8.850;2023-02-01T11:30:36;20.38;;;5.68;;
32333;SDS011;18810;53.040;8.850;2023-02-01T11:33:06;18.58;;;5.72;;
32333;SDS011;18810;53.040;8.850;2023-02-01T11:35:37;20.65;;;5.40;;
32333;SDS011;18810;53.040;8.850;2023-02-01T11:38:10;14.20;;;4.47;;
32333;SDS011;18810;53.040;8.850;2023-02-01T11:40:42;13.23;;;4.53;;
32333;SDS011;18810;53.040;8.850;2023-02-01T11:43:25;19.85;;;5.47;;
32333;SDS011;18810;53.040;8.850;2023-02-01T11:46:02;12.82;;;4.63;;
32333;SDS011;18810;53.040;8.850;2023-02-01T11:48:29;25.92;;;6.35;;
32333;SDS011;18810;53.040;8.850;2023-02-01T12:04:08;19.05;;;6.03;;
32333;SDS011;18810;53.040;8.850;2023-02-01T12:06:57;13.75;;;4.57;;
32333;SDS011;18810;53.040;8.850;2023-02-01T12:09:52;16.48;;;4.53;;
32333;SDS011;18810;53.040;8.850;2023-02-01T12:42:11;1.75;;;1.25;;
32333;SDS011;18810;53.040;8.850;2023-02-01T12:49:54;2.00;;;1.27;;
32333;SDS011;18810;53.040;8.850;2023-02-01T12:52:38;1.45;;;1.30;;
32333;SDS011;18810;53.040;8.850;2023-02-01T12:58:12;1.33;;;1.23;;
32333;SDS011;18810;53.040;8.850;2023-02-01T13:00:47;2.92;;;0.90;;
32333;SDS011;18810;53.040;8.850;2023-02-01T13:03:36;1.17;;;1.00;;
32333;SDS011;18810;53.040;8.850;2023-02-01T13:06:09;2.25;;;1.17;;
32333;SDS011;18810;53.040;8.850;2023-02-01T13:08:43;0.95;;;0.80;;
32333;SDS011;18810;53.040;8.850;2023-02-01T13:11:24;2.92;;;0.95;;
32333;SDS011;18810;53.040;8.850;2023-02-01T13:16:48;2.13;;;1.00;;
32333;SDS011;18810;53.040;8.850;2023-02-01T13:21:51;2.72;;;1.00;;
32333;SDS011;18810;53.040;8.850;2023-02-01T13:27:26;4.53;;;1.70;;
32333;SDS011;18810;53.040;8.850;2023-02-01T13:29:59;6.38;;;2.50;;
32333;SDS011;18810;53.040;8.850;2023-02-01T13:44:09;11.25;;;2.05;;
32333;SDS011;18810;53.040;8.850;2023-02-01T13:46:41;9.32;;;2.08;;
32333;SDS011;18810;53.040;8.850;2023-02-01T13:52:06;7.50;;;2.03;;
32333;SDS011;18810;53.040;8.850;2023-02-01T13:54:46;5.10;;;1.92;;
32333;SDS011;18810;53.040;8.850;2023-02-01T13:57:58;9.48;;;1.75;;
32333;SDS011;18810;53.040;8.850;2023-02-01T14:00:23;14.82;;;3.60;;
32333;SDS011;18810;53.040;8.850;2023-02-01T14:03:10;9.00;;;2.22;;
32333;SDS011;18810;53.040;8.850;2023-02-01T14:13:20;8.02;;;2.20;;
32333;SDS011;18810;53.040;8.850;2023-02-01T14:16:14;10.75;;;2.20;;
32333;SDS011;18810;53.040;8.850;2023-02-01T14:23:58;13.55;;;2.47;;
32333;SDS011;18810;53.040;8.850;2023-02-01T14:29:08;15.27;;;2.72;;
32333;SDS011;18810;53.040;8.850;2023-02-01T14:42:19;22.17;;;3.53;;
32333;SDS011;18810;53.040;8.850;2023-02-01T14:44:47;12.40;;;3.03;;
32333;SDS011;18810;53.040;8.850;2023-02-01T14:52:58;19.27;;;3.75;;
32333;SDS011;18810;53.040;8.850;2023-02-01T14:55:33;17.88;;;3.33;;
32333;SDS011;18810;53.040;8.850;2023-02-01T14:58:00;23.77;;;4.38;;
32333;SDS011;18810;53.040;8.850;2023-02-01T15:00:30;19.88;;;4.75;;
32333;SDS011;18810;53.040;8.850;2023-02-01T15:06:03;22.52;;;5.82;;
32333;SDS011;18810;53.040;8.850;2023-02-01T15:08:32;18.88;;;4.90;;
32333;SDS011;18810;53.040;8.850;2023-02-01T15:11:00;27.98;;;4.68;;
32333;SDS011;18810;53.040;8.850;2023-02-01T15:13:31;25.40;;;4.22;;
32333;SDS011;18810;53.040;8.850;2023-02-01T15:20:57;22.95;;;5.43;;
32333;SDS011;18810;53.040;8.850;2023-02-01T15:23:27;20.60;;;4.80;;
32333;SDS011;18810;53.040;8.850;2023-02-01T15:25:53;24.42;;;5.22;;
32333;SDS011;18810;53.040;8.850;2023-02-01T15:28:19;27.27;;;4.97;;
32333;SDS011;18810;53.040;8.850;2023-02-01T15:30:53;23.92;;;4.80;;
32333;SDS011;18810;53.040;8.850;2023-02-01T15:33:26;28.50;;;4.95;;
32333;SDS011;18810;53.040;8.850;2023-02-01T15:38:32;21.73;;;4.78;;
32333;SDS011;18810;53.040;8.850;2023-02-01T15:43:40;21.73;;;5.60;;
32333;SDS011;18810;53.040;8.850;2023-02-01T15:46:14;28.52;;;5.90;;
32333;SDS011;18810;53.040;8.850;2023-02-01T15:48:51;26.75;;;6.88;;
32333;SDS011;18810;53.040;8.850;2023-02-01T15:51:19;27.55;;;6.13;;
32333;SDS011;18810;53.040;8.850;2023-02-01T15:53:55;20.88;;;6.18;;
32333;SDS011;18810;53.040;8.850;2023-02-01T15:56:27;20.13;;;5.53;;
32333;SDS011;18810;53.040;8.850;2023-02-01T15:58:59;21.45;;;4.78;;
32333;SDS011;18810;53.040;8.850;2023-02-01T16:01:27;22.63;;;4.70;;
32333;SDS011;18810;53.040;8.850;2023-02-01T16:04:04;25.35;;;4.38;;
32333;SDS011;18810;53.040;8.850;2023-02-01T16:06:47;18.60;;;4.88;;
32333;SDS011;18810;53.040;8.850;2023-02-01T16:09:16;22.02;;;4.90;;
32333;SDS011;18810;53.040;8.850;2023-02-01T16:11:54;17.73;;;4.80;;
32333;SDS011;18810;53.040;8.850;2023-02-01T16:16:51;19.05;;;3.65;;
32333;SDS011;18810;53.040;8.850;2023-02-01T16:19:18;13.98;;;3.63;;
32333;SDS011;18810;53.040;8.850;2023-02-01T16:21:44;10.98;;;2.70;;
32333;SDS011;18810;53.040;8.850;2023-02-01T16:24:10;6.20;;;2.30;;
32333;SDS011;18810;53.040;8.850;2023-02-01T16:26:36;10.05;;;2.22;;
32333;SDS011;18810;53.040;8.850;2023-02-01T16:29:03;10.48;;;2.70;;
32333;SDS011;18810;53.040;8.850;2023-02-01T16:31:33;14.70;;;3.17;;
32333;SDS011;18810;53.040;8.850;2023-02-01T16:34:03;13.68;;;3.20;;
32333;SDS011;18810;53.040;8.850;2023-02-01T16:36:30;15.98;;;3.20;;
32333;SDS011;18810;53.040;8.850;2023-02-01T16:38:56;22.48;;;4.00;;
32333;SDS011;18810;53.040;8.850;2023-02-01T16:41:23;25.23;;;4.03;;
32333;SDS011;18810;53.040;8.850;2023-02-01T16:43:50;12.95;;;3.30;;
32333;SDS011;18810;53.040;8.850;2023-02-01T16:46:18;9.85;;;2.92;;
32333;SDS011;18810;53.040;8.850;2023-02-01T16:48:57;10.10;;;2.05;;
32333;SDS011;18810;53.040;8.850;2023-02-01T16:51:24;7.40;;;2.92;;
32333;SDS011;18810;53.040;8.850;2023-02-01T16:53:52;12.25;;;2.15;;
32333;SDS011;18810;53.040;8.850;2023-02-01T16:56:22;10.75;;;2.00;;
32333;SDS011;18810;53.040;8.850;2023-02-01T16:58:51;13.10;;;3.47;;
32333;SDS011;18810;53.040;8.850;2023-02-01T17:01:18;15.68;;;2.78;;
32333;SDS011;18810;53.040;8.850;2023-02-01T17:03:44;21.45;;;3.72;;
32333;SDS011;18810;53.040;8.850;2023-02-01T17:06:11;16.50;;;3.60;;
32333;SDS011;18810;53.040;8.850;2023-02-01T17:08:41;15.45;;;4.25;;
32333;SDS011;18810;53.040;8.850;2023-02-01T17:11:08;16.83;;;5.30;;
32333;SDS011;18810;53.040;8.850;2023-02-01T17:13:35;16.88;;;4.70;;
32333;SDS011;18810;53.040;8.850;2023-02-01T17:16:02;24.13;;;4.60;;
32333;SDS011;18810;53.040;8.850;2023-02-01T17:18:37;14.35;;;3.65;;
32333;SDS011;18810;53.040;8.850;2023-02-01T17:21:04;18.50;;;4.93;;
32333;SDS011;18810;53.040;8.850;2023-02-01T17:23:30;26.23;;;4.22;;
32333;SDS011;18810;53.040;8.850;2023-02-01T17:25:56;23.25;;;5.47;;
32333;SDS011;18810;53.040;8.850;2023-02-01T17:28:23;26.60;;;4.75;;
32333;SDS011;18810;53.040;8.850;2023-02-01T17:30:49;26.85;;;5.63;;
32333;SDS011;18810;53.040;8.850;2023-02-01T17:33:19;28.85;;;4.13;;
32333;SDS011;18810;53.040;8.850;2023-02-01T17:35:45;23.95;;;5.15;;
32333;SDS011;18810;53.040;8.850;2023-02-01T17:38:12;29.63;;;5.40;;
32333;SDS011;18810;53.040;8.850;2023-02-01T17:40:38;24.75;;;5.20;;
32333;SDS011;18810;53.040;8.850;2023-02-01T17:43:04;22.15;;;5.43;;
32333;SDS011;18810;53.040;8.850;2023-02-01T17:45:37;30.15;;;6.10;;
32333;SDS011;18810;53.040;8.850;2023-02-01T17:48:06;20.73;;;5.28;;
32333;SDS011;18810;53.040;8.850;2023-02-01T17:50:34;23.20;;;4.47;;
32333;SDS011;18810;53.040;8.850;2023-02-01T17:53:02;26.70;;;5.72;;
32333;SDS011;18810;53.040;8.850;2023-02-01T17:55:31;32.17;;;5.45;;
32333;SDS011;18810;53.040;8.850;2023-02-01T17:57:58;41.85;;;5.32;;
32333;SDS011;18810;53.040;8.850;2023-02-01T18:00:24;24.40;;;4.45;;